Time;durP1;ratioP1;P1;durP2;ratioP2;P2;SDS_P1;SDS_P2;PMS_P1;PMS_P2;Temp;Humidity;BMP_temperature;BMP_pressure;BME280_temperature;BME280_humidity;BME280_pressure;Samples;Min_cycle;Max_cycle;Signal;HPM_P1;HPM_P2
2021/07/15 00:00:37;;;;;;;;;;;;;;;16.85;nan;99506.59;5012914;28;19931;-82
2021/07/15 00:03:08;;;;;;;;;;;;;;;16.83;nan;99511.88;4995600;28;19932;-82
2021/07/15 00:05:36;;;;;;;;;;;;;;;16.80;nan;99518.44;4979000;28;19932;-82
2021/07/15 00:08:05;;;;;;;;;;;;;;;16.76;nan;99514.97;4995083;28;19925;-81
2021/07/15 00:10:39;;;;;;;;;;;;;;;16.81;nan;99526.47;5012432;28;19925;-82
2021/07/15 00:13:08;;;;;;;;;;;;;;;17.00;nan;99518.97;4995281;28;19931;-82
2021/07/15 00:15:38;;;;;;;;;;;;;;;16.79;nan;99519.69;5012465;28;19926;-82
2021/07/15 00:18:09;;;;;;;;;;;;;;;17.01;nan;99517.75;5011898;28;20628;-82
2021/07/15 00:20:38;;;;;;;;;;;;;;;17.18;nan;99513.50;5012613;28;19925;-82
2021/07/15 00:23:06;;;;;;;;;;;;;;;17.11;nan;99523.03;5012269;28;19925;-82
2021/07/15 00:25:33;;;;;;;;;;;;;;;17.00;nan;99533.09;4994925;28;19935;-82
2021/07/15 00:28:01;;;;;;;;;;;;;;;16.79;nan;99539.44;5012199;28;19932;-82
2021/07/15 00:30:28;;;;;;;;;;;;;;;16.72;nan;99534.06;4994934;28;19975;-81
2021/07/15 00:32:55;;;;;;;;;;;;;;;16.74;nan;99542.84;5012394;28;19930;-82
2021/07/15 00:35:22;;;;;;;;;;;;;;;16.50;nan;99547.25;4994650;28;19926;-82
2021/07/15 00:37:49;;;;;;;;;;;;;;;16.54;nan;99540.25;5012390;28;19929;-82
2021/07/15 00:40:17;;;;;;;;;;;;;;;16.57;nan;99539.34;5012137;28;19979;-82
2021/07/15 00:42:44;;;;;;;;;;;;;;;16.57;nan;99527.31;4994899;28;19925;-82
2021/07/15 00:45:13;;;;;;;;;;;;;;;16.59;nan;99525.59;5012106;28;20270;-82
2021/07/15 00:47:40;;;;;;;;;;;;;;;16.67;nan;99529.78;4980294;28;19936;-82
2021/07/15 00:50:09;;;;;;;;;;;;;;;16.63;nan;99525.50;4998382;28;19925;-82
2021/07/15 00:52:38;;;;;;;;;;;;;;;16.59;nan;99519.97;5016030;28;19931;-81
2021/07/15 00:55:07;;;;;;;;;;;;;;;16.67;nan;99510.03;4982461;28;19932;-82
2021/07/15 00:57:34;;;;;;;;;;;;;;;16.65;nan;99517.34;5015587;28;19932;-82
2021/07/15 01:00:04;;;;;;;;;;;;;;;16.54;nan;99516.94;4982146;28;19925;-82
2021/07/15 01:02:32;;;;;;;;;;;;;;;16.44;nan;99512.41;5015881;28;19931;-82
2021/07/15 01:05:05;;;;;;;;;;;;;;;16.43;nan;99517.25;5015597;28;19936;-82
2021/07/15 01:07:32;;;;;;;;;;;;;;;16.38;nan;99525.47;5015470;28;19925;-82
2021/07/15 01:09:59;;;;;;;;;;;;;;;16.55;nan;99527.75;5015392;28;19932;-82
2021/07/15 01:12:40;;;;;;;;;;;;;;;16.50;nan;99530.34;5015496;28;19925;-82
2021/07/15 01:15:16;;;;;;;;;;;;;;;16.52;nan;99530.69;4997972;28;20347;-82
2021/07/15 01:18:01;;;;;;;;;;;;;;;16.60;nan;99526.41;5015318;28;20377;-82
2021/07/15 01:20:47;;;;;;;;;;;;;;;16.51;nan;99535.53;5015355;28;20351;-82
2021/07/15 01:23:34;;;;;;;;;;;;;;;16.45;nan;99531.69;4968831;28;19926;-81
2021/07/15 01:26:10;;;;;;;;;;;;;;;16.25;nan;99536.75;4961777;28;20211;-81
2021/07/15 01:28:56;;;;;;;;;;;;;;;16.41;nan;99550.75;5015299;28;19925;-81
2021/07/15 01:31:24;;;;;;;;;;;;;;;16.52;nan;99551.22;4997979;28;20315;-82
2021/07/15 01:33:51;;;;;;;;;;;;;;;16.51;nan;99557.31;5014901;28;20303;-81
2021/07/15 01:36:22;;;;;;;;;;;;;;;16.68;nan;99559.56;5015331;28;19925;-82
2021/07/15 01:38:52;;;;;;;;;;;;;;;16.55;nan;99555.97;4997537;28;19925;-82
2021/07/15 01:41:25;;;;;;;;;;;;;;;16.54;nan;99557.19;4997814;28;19955;-82
2021/07/15 01:44:12;;;;;;;;;;;;;;;16.51;nan;99557.31;4981457;28;19998;-82
2021/07/15 01:46:41;;;;;;;;;;;;;;;16.44;nan;99557.53;5015021;28;19929;-82
2021/07/15 01:49:08;;;;;;;;;;;;;;;16.23;nan;99553.34;4983949;28;19925;-82
2021/07/15 01:51:36;;;;;;;;;;;;;;;16.16;nan;99554.31;5014750;28;19925;-82
2021/07/15 01:54:04;;;;;;;;;;;;;;;15.99;nan;99557.69;5014524;28;19994;-82
2021/07/15 01:56:32;;;;;;;;;;;;;;;15.79;nan;99574.78;4997408;28;19925;-82
2021/07/15 01:59:00;;;;;;;;;;;;;;;15.56;nan;99560.16;4996790;28;20292;-82
2021/07/15 02:01:28;;;;;;;;;;;;;;;16.00;nan;99562.09;4997507;28;19932;-82
2021/07/15 02:03:57;;;;;;;;;;;;;;;16.03;nan;99564.81;5014280;28;20396;-82
2021/07/15 02:06:25;;;;;;;;;;;;;;;16.07;nan;99562.66;4997038;28;20282;-82
2021/07/15 02:08:53;;;;;;;;;;;;;;;16.18;nan;99557.50;4997135;28;20278;-82
2021/07/15 02:11:21;;;;;;;;;;;;;;;16.34;nan;99558.63;5014709;28;19929;-82
2021/07/15 02:13:49;;;;;;;;;;;;;;;16.67;nan;99565.66;4995067;28;19930;-82
2021/07/15 02:16:16;;;;;;;;;;;;;;;16.53;nan;99568.94;5014183;28;19929;-82
2021/07/15 02:18:45;;;;;;;;;;;;;;;16.64;nan;99566.56;4980288;28;19929;-82
2021/07/15 02:21:13;;;;;;;;;;;;;;;16.70;nan;99561.94;5014211;28;19925;-82
2021/07/15 02:23:41;;;;;;;;;;;;;;;16.87;nan;99563.38;4996747;28;20409;-82
2021/07/15 02:26:08;;;;;;;;;;;;;;;17.00;nan;99555.66;5014244;28;19936;-82
2021/07/15 02:28:36;;;;;;;;;;;;;;;16.94;nan;99569.56;4996879;28;20288;-82
2021/07/15 02:31:05;;;;;;;;;;;;;;;16.91;nan;99552.75;4996611;28;20324;-82
2021/07/15 02:33:36;;;;;;;;;;;;;;;16.69;nan;99552.66;5013714;28;19978;-82
2021/07/15 02:36:05;;;;;;;;;;;;;;;16.56;nan;99549.06;4996633;28;20516;-82
2021/07/15 02:38:34;;;;;;;;;;;;;;;16.61;nan;99567.47;5013886;28;19931;-82
2021/07/15 02:41:01;;;;;;;;;;;;;;;16.63;nan;99570.63;5013865;28;19929;-82
2021/07/15 02:43:29;;;;;;;;;;;;;;;16.48;nan;99575.16;5013969;28;20389;-82
2021/07/15 02:45:57;;;;;;;;;;;;;;;16.48;nan;99577.97;5013550;28;20277;-82
2021/07/15 02:48:24;;;;;;;;;;;;;;;16.17;nan;99581.31;4996111;28;19925;-82
2021/07/15 02:50:51;;;;;;;;;;;;;;;16.16;nan;99587.38;4996121;28;20462;-82
2021/07/15 02:53:19;;;;;;;;;;;;;;;16.17;nan;99583.31;5013697;28;20297;-82
2021/07/15 02:55:52;;;;;;;;;;;;;;;16.33;nan;99583.22;4980107;28;20384;-82
2021/07/15 02:58:31;;;;;;;;;;;;;;;16.30;nan;99586.94;4996238;28;20288;-82
2021/07/15 03:01:00;;;;;;;;;;;;;;;16.27;nan;99575.78;4995994;28;19925;-82
2021/07/15 03:03:37;;;;;;;;;;;;;;;16.17;nan;99577.69;5013751;28;19925;-82
2021/07/15 03:06:09;;;;;;;;;;;;;;;16.21;nan;99589.63;4995764;28;20388;-82
2021/07/15 03:08:46;;;;;;;;;;;;;;;16.51;nan;99594.75;4996219;28;19925;-82
2021/07/15 03:11:13;;;;;;;;;;;;;;;16.52;nan;99602.00;5012705;28;19944;-82
2021/07/15 03:13:43;;;;;;;;;;;;;;;16.25;nan;99591.09;5013597;28;19925;-82
2021/07/15 03:16:11;;;;;;;;;;;;;;;16.57;nan;99583.72;5012804;28;19926;-82
2021/07/15 03:18:39;;;;;;;;;;;;;;;16.44;nan;99605.47;4995730;28;20438;-82
2021/07/15 03:21:07;;;;;;;;;;;;;;;16.59;nan;99603.78;5013255;28;19932;-82
2021/07/15 03:23:36;;;;;;;;;;;;;;;16.51;nan;99597.59;5013022;28;19936;-82
2021/07/15 03:26:03;;;;;;;;;;;;;;;16.58;nan;99607.88;4995999;28;19932;-82
2021/07/15 03:28:32;;;;;;;;;;;;;;;16.54;nan;99612.84;4993795;28;20418;-82
2021/07/15 03:31:07;;;;;;;;;;;;;;;16.52;nan;99615.31;5012996;28;20410;-82
2021/07/15 03:33:35;;;;;;;;;;;;;;;16.50;nan;99623.41;5012858;28;19932;-82
2021/07/15 03:36:04;;;;;;;;;;;;;;;16.78;nan;99614.06;4995529;28;19925;-82
2021/07/15 03:38:32;;;;;;;;;;;;;;;16.74;nan;99607.75;4995476;28;19967;-82
2021/07/15 03:41:01;;;;;;;;;;;;;;;16.44;nan;99603.47;5013133;28;19929;-82
2021/07/15 03:43:29;;;;;;;;;;;;;;;16.50;nan;99601.66;4995529;28;19926;-82
2021/07/15 03:45:56;;;;;;;;;;;;;;;16.39;nan;99606.03;5012659;28;19925;-82
2021/07/15 03:48:26;;;;;;;;;;;;;;;16.57;nan;99614.75;4995526;28;19926;-82
2021/07/15 03:50:58;;;;;;;;;;;;;;;16.43;nan;99620.78;5012890;28;19925;-81
2021/07/15 03:53:26;;;;;;;;;;;;;;;16.24;nan;99623.38;5012968;28;19926;-79
2021/07/15 03:55:54;;;;;;;;;;;;;;;16.42;nan;99628.47;4979165;28;19925;-79
2021/07/15 03:58:21;;;;;;;;;;;;;;;16.64;nan;99634.28;4979116;28;19929;-79
2021/07/15 04:00:49;;;;;;;;;;;;;;;16.54;nan;99629.75;5012616;28;19926;-79
2021/07/15 04:03:19;;;;;;;;;;;;;;;16.61;nan;99643.63;5012691;28;19925;-79
2021/07/15 04:05:49;;;;;;;;;;;;;;;16.53;nan;99642.25;5012655;28;19939;-79
2021/07/15 04:08:18;;;;;;;;;;;;;;;16.55;nan;99632.13;4995119;28;20391;-79
2021/07/15 04:10:45;;;;;;;;;;;;;;;16.43;nan;99640.53;4995255;28;19925;-79
2021/07/15 04:13:13;;;;;;;;;;;;;;;16.29;nan;99624.84;5012544;28;20385;-79
2021/07/15 04:15:58;;;;;;;;;;;;;;;16.49;nan;99638.78;5012412;28;19926;-82
2021/07/15 04:18:27;;;;;;;;;;;;;;;16.44;nan;99634.47;4995050;28;20427;-82
2021/07/15 04:20:55;;;;;;;;;;;;;;;16.42;nan;99633.34;4996078;28;19926;-82
2021/07/15 04:23:23;;;;;;;;;;;;;;;16.39;nan;99639.88;4999118;28;19975;-82
2021/07/15 04:25:51;;;;;;;;;;;;;;;16.50;nan;99646.00;5016578;28;19925;-82
2021/07/15 04:28:19;;;;;;;;;;;;;;;16.51;nan;99641.94;5015903;28;19929;-81
2021/07/15 04:30:47;;;;;;;;;;;;;;;16.39;nan;99648.34;4999135;28;19925;-82
2021/07/15 04:33:15;;;;;;;;;;;;;;;16.42;nan;99655.91;5016213;28;20376;-82
2021/07/15 04:35:42;;;;;;;;;;;;;;;16.46;nan;99650.97;5016303;28;19933;-82
2021/07/15 04:38:10;;;;;;;;;;;;;;;16.56;nan;99649.81;4998718;28;19925;-82
2021/07/15 04:40:37;;;;;;;;;;;;;;;16.51;nan;99648.34;5016509;28;19930;-81
2021/07/15 04:43:06;;;;;;;;;;;;;;;16.67;nan;99651.09;5016074;28;19935;-82
2021/07/15 04:45:36;;;;;;;;;;;;;;;16.62;nan;99648.03;5015865;28;19932;-82
2021/07/15 04:48:03;;;;;;;;;;;;;;;16.69;nan;99657.06;4998825;28;19932;-82
2021/07/15 04:50:32;;;;;;;;;;;;;;;16.67;nan;99661.59;5015981;28;19926;-82
2021/07/15 04:53:01;;;;;;;;;;;;;;;16.70;nan;99657.84;5015957;28;19926;-82
2021/07/15 04:55:29;;;;;;;;;;;;;;;16.83;nan;99658.66;4998339;28;19933;-82
2021/07/15 04:57:57;;;;;;;;;;;;;;;16.88;nan;99658.09;5015684;28;19983;-82
2021/07/15 05:00:26;;;;;;;;;;;;;;;17.06;nan;99655.47;5015713;28;19926;-82
2021/07/15 05:03:01;;;;;;;;;;;;;;;17.18;nan;99660.31;5015861;28;19925;-82
2021/07/15 05:05:28;;;;;;;;;;;;;;;17.02;nan;99649.16;5015675;28;19925;-82
2021/07/15 05:07:55;;;;;;;;;;;;;;;17.09;nan;99643.28;4998124;28;19935;-82
2021/07/15 05:10:22;;;;;;;;;;;;;;;17.14;nan;99640.69;4998127;28;19932;-82
2021/07/15 05:12:50;;;;;;;;;;;;;;;17.15;nan;99635.81;5015300;28;19925;-83
2021/07/15 05:15:17;;;;;;;;;;;;;;;17.11;nan;99640.81;5015445;28;19932;-82
2021/07/15 05:17:44;;;;;;;;;;;;;;;16.85;nan;99634.41;4997945;28;19925;-82
2021/07/15 05:20:11;;;;;;;;;;;;;;;17.06;nan;99639.34;5015471;28;20319;-82
2021/07/15 05:22:39;;;;;;;;;;;;;;;17.00;nan;99655.28;4997799;28;19929;-82
2021/07/15 05:25:08;;;;;;;;;;;;;;;17.19;nan;99659.09;5015348;28;19926;-82
2021/07/15 05:27:36;;;;;;;;;;;;;;;17.10;nan;99654.13;5015182;28;19932;-82
2021/07/15 05:30:05;;;;;;;;;;;;;;;17.19;nan;99654.22;4997610;28;19926;-82
2021/07/15 05:32:33;;;;;;;;;;;;;;;16.97;nan;99664.66;4981072;28;20385;-82
2021/07/15 05:35:00;;;;;;;;;;;;;;;16.85;nan;99664.63;5015143;28;19925;-82
2021/07/15 05:37:27;;;;;;;;;;;;;;;16.65;nan;99680.97;5015200;28;19925;-82
2021/07/15 05:39:54;;;;;;;;;;;;;;;16.79;nan;99687.00;4965491;28;19940;-82
2021/07/15 05:42:22;;;;;;;;;;;;;;;16.82;nan;99697.38;5001374;28;19933;-82
2021/07/15 05:44:49;;;;;;;;;;;;;;;16.85;nan;99695.69;5015127;28;19926;-82
2021/07/15 05:47:16;;;;;;;;;;;;;;;16.95;nan;99700.22;5014719;28;20431;-82
2021/07/15 05:49:44;;;;;;;;;;;;;;;17.02;nan;99694.34;5014923;28;19931;-80
2021/07/15 05:52:12;;;;;;;;;;;;;;;17.43;nan;99697.00;4997546;28;19929;-80
2021/07/15 05:54:39;;;;;;;;;;;;;;;17.95;nan;99697.22;5014761;28;19930;-79
2021/07/15 05:57:07;;;;;;;;;;;;;;;17.53;nan;99693.84;4997422;28;19926;-80
2021/07/15 05:59:34;;;;;;;;;;;;;;;17.08;nan;99695.34;4997214;28;19933;-79
2021/07/15 06:02:03;;;;;;;;;;;;;;;17.19;nan;99699.41;5014610;28;20403;-80
2021/07/15 06:04:30;;;;;;;;;;;;;;;17.08;nan;99709.47;5014782;28;20411;-79
2021/07/15 06:06:57;;;;;;;;;;;;;;;16.81;nan;99703.47;4997299;28;19925;-79
2021/07/15 06:09:25;;;;;;;;;;;;;;;17.00;nan;99708.91;4996715;28;19929;-79
2021/07/15 06:11:52;;;;;;;;;;;;;;;16.97;nan;99725.94;5014339;28;19937;-79
2021/07/15 06:14:19;;;;;;;;;;;;;;;17.15;nan;99732.63;5014022;28;19925;-80
2021/07/15 06:16:46;;;;;;;;;;;;;;;16.74;nan;99726.25;4996861;28;19926;-79
2021/07/15 06:19:14;;;;;;;;;;;;;;;17.06;nan;99726.88;4996988;28;19940;-79
2021/07/15 06:21:41;;;;;;;;;;;;;;;16.91;nan;99739.03;5014326;28;19929;-79
2021/07/15 06:24:09;;;;;;;;;;;;;;;16.91;nan;99730.56;5014189;28;19925;-80
2021/07/15 06:26:37;;;;;;;;;;;;;;;16.95;nan;99732.03;4996853;28;20300;-80
2021/07/15 06:29:05;;;;;;;;;;;;;;;16.88;nan;99726.63;5014115;28;19957;-79
2021/07/15 06:31:33;;;;;;;;;;;;;;;16.92;nan;99729.34;4996718;28;19936;-79
2021/07/15 06:34:00;;;;;;;;;;;;;;;17.13;nan;99742.78;4996954;28;19926;-79
2021/07/15 06:36:30;;;;;;;;;;;;;;;17.03;nan;99727.75;4996706;28;19933;-80
2021/07/15 06:38:57;;;;;;;;;;;;;;;16.93;nan;99728.09;5000087;28;20400;-79
2021/07/15 06:41:24;;;;;;;;;;;;;;;17.01;nan;99738.72;5014023;28;19995;-79
2021/07/15 06:43:51;;;;;;;;;;;;;;;17.06;nan;99740.97;5013518;28;19930;-80
2021/07/15 06:46:22;;;;;;;;;;;;;;;17.22;nan;99731.63;4996603;28;19975;-80
2021/07/15 06:48:49;;;;;;;;;;;;;;;17.39;nan;99745.16;4996317;28;19929;-80
2021/07/15 06:51:17;;;;;;;;;;;;;;;17.57;nan;99744.59;4996189;28;20023;-79
2021/07/15 06:53:45;;;;;;;;;;;;;;;16.74;nan;99751.66;5013477;28;20002;-79
2021/07/15 06:56:12;;;;;;;;;;;;;;;17.17;nan;99764.03;5013510;28;20303;-79
2021/07/15 06:58:40;;;;;;;;;;;;;;;17.55;nan;99756.34;4996087;28;20296;-80
2021/07/15 07:01:09;;;;;;;;;;;;;;;17.66;nan;99748.31;5013743;28;19925;-80
2021/07/15 07:03:36;;;;;;;;;;;;;;;17.82;nan;99753.03;4979969;28;19932;-79
2021/07/15 07:06:04;;;;;;;;;;;;;;;18.09;nan;99756.09;4979830;28;20335;-80
2021/07/15 07:08:31;;;;;;;;;;;;;;;18.27;nan;99749.81;5013133;28;19949;-79
2021/07/15 07:10:58;;;;;;;;;;;;;;;18.40;nan;99742.91;4979981;28;19929;-80
2021/07/15 07:13:25;;;;;;;;;;;;;;;18.05;nan;99749.78;4995915;28;19925;-80
2021/07/15 07:15:56;;;;;;;;;;;;;;;18.16;nan;99755.84;5013201;28;20361;-80
2021/07/15 07:18:23;;;;;;;;;;;;;;;18.13;nan;99747.50;4995938;28;19933;-80
2021/07/15 07:20:50;;;;;;;;;;;;;;;18.25;nan;99735.34;4995698;28;19932;-80
2021/07/15 07:23:18;;;;;;;;;;;;;;;18.79;nan;99750.69;4995504;28;19929;-79
2021/07/15 07:25:45;;;;;;;;;;;;;;;18.82;nan;99741.28;5013215;28;19971;-80
2021/07/15 07:28:13;;;;;;;;;;;;;;;19.17;nan;99741.94;5012913;28;20020;-80
2021/07/15 07:30:41;;;;;;;;;;;;;;;19.13;nan;99747.72;4995709;28;19925;-80
2021/07/15 07:33:09;;;;;;;;;;;;;;;19.57;nan;99739.88;4995502;28;20266;-80
2021/07/15 07:35:37;;;;;;;;;;;;;;;19.66;nan;99754.88;5013120;28;20395;-80
2021/07/15 07:38:04;;;;;;;;;;;;;;;19.67;nan;99756.44;5012873;28;19933;-80
2021/07/15 07:40:31;;;;;;;;;;;;;;;19.37;nan;99754.47;4995222;28;20395;-80
2021/07/15 07:42:59;;;;;;;;;;;;;;;19.53;nan;99744.91;4995594;28;19975;-80
2021/07/15 07:45:26;;;;;;;;;;;;;;;19.98;nan;99749.91;4995274;28;19936;-80
2021/07/15 07:47:53;;;;;;;;;;;;;;;19.79;nan;99745.44;4995342;28;19930;-80
2021/07/15 07:50:22;;;;;;;;;;;;;;;20.08;nan;99745.81;5012464;28;19926;-80
2021/07/15 07:52:49;;;;;;;;;;;;;;;19.84;nan;99748.47;4995569;28;19971;-80
2021/07/15 07:55:16;;;;;;;;;;;;;;;19.51;nan;99753.91;4994868;28;19926;-80
2021/07/15 07:57:44;;;;;;;;;;;;;;;19.16;nan;99758.13;5012816;28;19925;-80
2021/07/15 08:00:12;;;;;;;;;;;;;;;19.19;nan;99751.53;5012790;28;19947;-79
2021/07/15 08:02:44;;;;;;;;;;;;;;;19.37;nan;99753.69;5012545;28;20292;-80
2021/07/15 08:05:12;;;;;;;;;;;;;;;19.52;nan;99763.19;4979036;28;20400;-80
2021/07/15 08:07:40;;;;;;;;;;;;;;;19.94;nan;99752.09;5012522;28;19925;-80
2021/07/15 08:10:08;;;;;;;;;;;;;;;19.92;nan;99755.41;4978794;28;19949;-80
2021/07/15 08:12:35;;;;;;;;;;;;;;;19.67;nan;99767.00;5012790;28;19933;-80
2021/07/15 08:15:03;;;;;;;;;;;;;;;19.77;nan;99753.63;4994745;28;19929;-80
2021/07/15 08:17:31;;;;;;;;;;;;;;;19.45;nan;99750.09;5012563;28;19936;-80
2021/07/15 08:19:58;;;;;;;;;;;;;;;19.07;nan;99755.25;4995196;28;19925;-80
2021/07/15 08:22:25;;;;;;;;;;;;;;;19.05;nan;99748.47;5012332;28;19925;-79
2021/07/15 08:24:53;;;;;;;;;;;;;;;18.51;nan;99748.94;5012300;28;19930;-80
2021/07/15 08:27:21;;;;;;;;;;;;;;;18.04;nan;99759.50;5012599;28;19926;-79
2021/07/15 08:29:48;;;;;;;;;;;;;;;18.19;nan;99766.25;4994805;28;19925;-80
2021/07/15 08:32:15;;;;;;;;;;;;;;;18.52;nan;99761.84;5012591;28;19931;-79
2021/07/15 08:34:43;;;;;;;;;;;;;;;18.72;nan;99765.09;4994949;28;19929;-80
2021/07/15 08:37:10;;;;;;;;;;;;;;;18.94;nan;99771.56;5012364;28;19929;-80
2021/07/15 08:39:38;;;;;;;;;;;;;;;19.03;nan;99757.44;5012324;28;19955;-80
2021/07/15 08:42:08;;;;;;;;;;;;;;;19.38;nan;99767.41;5012179;28;19988;-80
2021/07/15 08:44:39;;;;;;;;;;;;;;;19.52;nan;99780.97;5012240;28;19931;-80
2021/07/15 08:47:07;;;;;;;;;;;;;;;19.65;nan;99770.31;4995031;28;19932;-80
2021/07/15 08:49:36;;;;;;;;;;;;;;;19.75;nan;99781.69;4994834;28;19926;-80
2021/07/15 08:52:04;;;;;;;;;;;;;;;19.88;nan;99780.31;4978489;28;19925;-80
2021/07/15 08:54:37;;;;;;;;;;;;;;;19.94;nan;99769.91;4994863;28;20377;-80
2021/07/15 08:57:04;;;;;;;;;;;;;;;19.94;nan;99781.25;5012066;28;19926;-80
2021/07/15 08:59:31;;;;;;;;;;;;;;;20.21;nan;99772.00;5012062;28;19976;-80
2021/07/15 09:02:01;;;;;;;;;;;;;;;20.20;nan;99776.13;4994890;28;19926;-80
2021/07/15 09:04:28;;;;;;;;;;;;;;;20.41;nan;99772.34;4981224;28;20300;-80
2021/07/15 09:06:56;;;;;;;;;;;;;;;20.42;nan;99771.06;5012088;28;20418;-80
2021/07/15 09:09:23;;;;;;;;;;;;;;;20.54;nan;99767.31;5014783;28;19953;-80
2021/07/15 09:11:50;;;;;;;;;;;;;;;20.37;nan;99769.66;5015656;28;19925;-80
2021/07/15 09:14:22;;;;;;;;;;;;;;;20.43;nan;99772.66;4997847;28;20356;-80
2021/07/15 09:16:50;;;;;;;;;;;;;;;20.85;nan;99770.72;4981970;28;19932;-80
2021/07/15 09:19:19;;;;;;;;;;;;;;;21.03;nan;99767.84;5015218;28;19930;-80
2021/07/15 09:21:47;;;;;;;;;;;;;;;21.16;nan;99771.28;5015184;28;20474;-80
2021/07/15 09:24:31;;;;;;;;;;;;;;;21.18;nan;99768.75;4981813;28;19925;-80
2021/07/15 09:26:59;;;;;;;;;;;;;;;21.40;nan;99769.31;5015329;28;19926;-80
2021/07/15 09:29:26;;;;;;;;;;;;;;;21.40;nan;99766.47;5015367;28;19951;-80
2021/07/15 09:31:56;;;;;;;;;;;;;;;21.50;nan;99759.47;5014898;28;19932;-80
2021/07/15 09:34:25;;;;;;;;;;;;;;;21.57;nan;99767.63;4997664;28;19982;-80
2021/07/15 09:36:53;;;;;;;;;;;;;;;21.65;nan;99766.03;5014880;28;19933;-79
2021/07/15 09:39:22;;;;;;;;;;;;;;;21.65;nan;99760.34;4997803;28;19929;-80
2021/07/15 09:42:04;;;;;;;;;;;;;;;21.74;nan;99753.81;4997768;28;20304;-80
2021/07/15 09:44:32;;;;;;;;;;;;;;;21.24;nan;99761.94;5015191;28;19929;-80
2021/07/15 09:46:59;;;;;;;;;;;;;;;21.33;nan;99756.22;5014641;28;19975;-79
2021/07/15 09:49:31;;;;;;;;;;;;;;;21.48;nan;99762.00;4997605;28;19925;-80
2021/07/15 09:51:59;;;;;;;;;;;;;;;21.70;nan;99762.53;4997318;28;19926;-80
2021/07/15 09:54:28;;;;;;;;;;;;;;;21.72;nan;99754.28;5014951;28;19929;-80
2021/07/15 09:56:55;;;;;;;;;;;;;;;22.02;nan;99758.09;5014879;28;19935;-80
2021/07/15 09:59:22;;;;;;;;;;;;;;;21.99;nan;99751.28;5001148;28;20031;-80
2021/07/15 10:01:51;;;;;;;;;;;;;;;21.86;nan;99758.50;5014598;28;20282;-79
2021/07/15 10:04:23;;;;;;;;;;;;;;;21.78;nan;99758.06;4980973;28;20395;-80
2021/07/15 10:06:51;;;;;;;;;;;;;;;22.29;nan;99760.72;4997013;28;19931;-80
2021/07/15 10:09:22;;;;;;;;;;;;;;;22.82;nan;99758.69;5014464;28;19932;-79
2021/07/15 10:11:54;;;;;;;;;;;;;;;22.78;nan;99741.78;4997151;28;19975;-80
2021/07/15 10:14:34;;;;;;;;;;;;;;;22.62;nan;99747.97;5014302;28;19979;-80
2021/07/15 10:17:01;;;;;;;;;;;;;;;22.55;nan;99748.34;5014253;28;19925;-80
2021/07/15 10:19:28;;;;;;;;;;;;;;;22.29;nan;99753.00;5013779;28;20373;-80
2021/07/15 10:21:57;;;;;;;;;;;;;;;22.20;nan;99744.53;4997037;28;19925;-79
2021/07/15 10:24:28;;;;;;;;;;;;;;;21.30;nan;99756.41;5014238;28;19983;-79
2021/07/15 10:26:57;;;;;;;;;;;;;;;21.59;nan;99756.59;4996788;28;19971;-79
2021/07/15 10:29:25;;;;;;;;;;;;;;;21.74;nan;99751.78;5014177;28;19926;-79
2021/07/15 10:31:53;;;;;;;;;;;;;;;21.84;nan;99749.69;5013916;28;19925;-80
2021/07/15 10:34:21;;;;;;;;;;;;;;;21.50;nan;99735.94;5014044;28;20343;-79
2021/07/15 10:36:49;;;;;;;;;;;;;;;21.25;nan;99751.34;5013858;28;19941;-79
2021/07/15 10:39:17;;;;;;;;;;;;;;;21.31;nan;99758.00;5013976;28;19925;-79
2021/07/15 10:41:53;;;;;;;;;;;;;;;21.27;nan;99765.88;4996768;28;19929;-79
2021/07/15 10:44:20;;;;;;;;;;;;;;;21.41;nan;99756.66;5013854;28;19926;-79
2021/07/15 10:46:48;;;;;;;;;;;;;;;21.38;nan;99769.81;4996197;28;19925;-80
2021/07/15 10:49:20;;;;;;;;;;;;;;;20.72;nan;99767.28;5013548;28;20393;-79
2021/07/15 10:51:49;;;;;;;;;;;;;;;21.15;nan;99776.19;4996463;28;19932;-79
2021/07/15 10:54:17;;;;;;;;;;;;;;;21.61;nan;99771.13;4982929;28;19925;-80
2021/07/15 10:56:48;;;;;;;;;;;;;;;22.01;nan;99768.69;4996377;28;20380;-80
2021/07/15 10:59:28;;;;;;;;;;;;;;;22.09;nan;99772.75;5000119;28;19932;-80
2021/07/15 11:01:56;;;;;;;;;;;;;;;22.27;nan;99780.34;5013542;28;19979;-80
2021/07/15 11:04:40;;;;;;;;;;;;;;;22.42;nan;99764.09;4996134;28;20377;-79
2021/07/15 11:07:20;;;;;;;;;;;;;;;22.05;nan;99771.34;4996154;28;20285;-79
2021/07/15 11:09:48;;;;;;;;;;;;;;;21.97;nan;99770.94;5001637;28;20384;-80
2021/07/15 11:12:25;;;;;;;;;;;;;;;21.99;nan;99779.75;5013246;28;19941;-79
2021/07/15 11:15:05;;;;;;;;;;;;;;;21.75;nan;99773.25;5013096;28;19926;-79
2021/07/15 11:17:33;;;;;;;;;;;;;;;22.26;nan;99776.72;5013163;28;19925;-80
2021/07/15 11:20:07;;;;;;;;;;;;;;;22.37;nan;99782.63;4995918;28;19971;-80
2021/07/15 11:22:36;;;;;;;;;;;;;;;22.41;nan;99788.16;5013123;28;20434;-79
2021/07/15 11:25:04;;;;;;;;;;;;;;;22.23;nan;99786.25;5013211;28;19933;-79
2021/07/15 11:27:33;;;;;;;;;;;;;;;22.51;nan;99790.47;5013262;28;19929;-79
2021/07/15 11:30:02;;;;;;;;;;;;;;;22.30;nan;99780.19;4979240;28;19925;-80
2021/07/15 11:32:29;;;;;;;;;;;;;;;22.23;nan;99786.25;5012828;28;19932;-80
2021/07/15 11:34:57;;;;;;;;;;;;;;;22.36;nan;99791.66;5012845;28;19926;-79
2021/07/15 11:37:34;;;;;;;;;;;;;;;22.68;nan;99790.78;4979297;28;20392;-80
2021/07/15 11:40:03;;;;;;;;;;;;;;;22.73;nan;99793.75;4995438;28;20300;-79
2021/07/15 11:42:34;;;;;;;;;;;;;;;23.13;nan;99786.72;4995566;28;19925;-79
2021/07/15 11:45:06;;;;;;;;;;;;;;;23.38;nan;99783.28;4995536;28;19926;-80
2021/07/15 11:47:42;;;;;;;;;;;;;;;23.60;nan;99798.69;4999920;28;19971;-79
2021/07/15 11:50:28;;;;;;;;;;;;;;;23.52;nan;99794.69;5012962;28;20005;-80
2021/07/15 11:53:15;;;;;;;;;;;;;;;23.34;nan;99809.13;4995549;28;19932;-79
2021/07/15 11:55:46;;;;;;;;;;;;;;;23.22;nan;99807.34;5012752;28;19929;-79
2021/07/15 11:58:33;;;;;;;;;;;;;;;22.96;nan;99818.53;5012541;28;19933;-80
2021/07/15 12:01:16;;;;;;;;;;;;;;;23.03;nan;99809.63;5012622;28;19925;-80
2021/07/15 12:04:02;;;;;;;;;;;;;;;23.57;nan;99808.22;4995598;28;19925;-79
2021/07/15 12:06:30;;;;;;;;;;;;;;;23.93;nan;99812.69;5001458;28;20304;-79
2021/07/15 12:09:05;;;;;;;;;;;;;;;23.79;nan;99813.50;5012496;28;19926;-79
2021/07/15 12:11:33;;;;;;;;;;;;;;;23.48;nan;99807.56;5012588;28;19926;-79
2021/07/15 12:14:04;;;;;;;;;;;;;;;23.91;nan;99812.38;5012510;28;19940;-79
2021/07/15 12:16:32;;;;;;;;;;;;;;;23.87;nan;99811.81;5012528;28;19931;-80
2021/07/15 12:19:04;;;;;;;;;;;;;;;23.93;nan;99801.25;4979179;28;19925;-79
2021/07/15 12:21:32;;;;;;;;;;;;;;;23.77;nan;99810.34;5012448;28;19925;-80
2021/07/15 12:24:09;;;;;;;;;;;;;;;23.89;nan;99820.63;5012863;28;20270;-79
2021/07/15 12:26:38;;;;;;;;;;;;;;;23.52;nan;99808.16;4978567;28;19929;-79
2021/07/15 12:29:12;;;;;;;;;;;;;;;23.45;nan;99808.53;5012854;28;19940;-80
2021/07/15 12:31:41;;;;;;;;;;;;;;;23.36;nan;99817.97;5012335;28;19936;-79
2021/07/15 12:34:09;;;;;;;;;;;;;;;23.58;nan;99806.16;4994876;28;19932;-79
2021/07/15 12:36:39;;;;;;;;;;;;;;;23.74;nan;99817.03;5012251;28;19932;-79
2021/07/15 12:39:08;;;;;;;;;;;;;;;23.46;nan;99810.13;5012481;28;19925;-79
2021/07/15 12:41:39;;;;;;;;;;;;;;;23.20;nan;99809.13;5012990;28;19930;-79
2021/07/15 12:44:14;;;;;;;;;;;;;;;23.48;nan;99811.19;5016011;28;19933;-79
2021/07/15 12:46:46;;;;;;;;;;;;;;;23.06;nan;99822.88;5016161;28;19940;-80
2021/07/15 12:49:26;;;;;;;;;;;;;;;23.04;nan;99831.13;4998640;28;20290;-80
2021/07/15 12:51:57;;;;;;;;;;;;;;;23.31;nan;99821.53;4982183;28;19932;-79
2021/07/15 12:54:33;;;;;;;;;;;;;;;23.41;nan;99820.16;4982679;28;19925;-79
2021/07/15 12:57:03;;;;;;;;;;;;;;;23.59;nan;99816.28;5015670;28;20284;-79
2021/07/15 12:59:32;;;;;;;;;;;;;;;23.39;nan;99822.69;5015942;28;19926;-79
2021/07/15 13:02:12;;;;;;;;;;;;;;;23.29;nan;99831.84;5015718;28;20047;-79
2021/07/15 13:04:40;;;;;;;;;;;;;;;23.25;nan;99823.50;5015770;28;19995;-79
2021/07/15 13:07:09;;;;;;;;;;;;;;;23.14;nan;99826.91;4998318;28;19929;-79
2021/07/15 13:09:51;;;;;;;;;;;;;;;23.49;nan;99820.53;5015780;28;19925;-79
2021/07/15 13:15:08;;;;;;;;;;;;;;;23.46;nan;99822.28;4997918;28;19929;-80
2021/07/15 13:17:43;;;;;;;;;;;;;;;23.52;nan;99808.16;5015664;28;19926;-79
2021/07/15 13:20:10;;;;;;;;;;;;;;;23.42;nan;99809.50;5015673;28;19979;-80
2021/07/15 13:22:42;;;;;;;;;;;;;;;23.38;nan;99823.19;5015455;28;19933;-79